createdAt,value
2022-11-05T00:10:26.560Z,9.20
2022-11-05T00:25:30.181Z,9.15
2022-11-05T00:40:32.138Z,9.38
2022-11-05T00:55:45.477Z,9.90
2022-11-05T01:10:50.519Z,10.02
2022-11-05T01:25:52.440Z,9.77
2022-11-05T01:40:54.461Z,9.55
2022-11-05T01:56:03.021Z,10.52
2022-11-05T02:11:05.963Z,10.25
2022-11-05T02:26:31.078Z,10.80
2022-11-05T02:42:14.220Z,10.98
2022-11-05T02:57:19.821Z,11.57
2022-11-05T03:12:45.978Z,11.38
2022-11-05T03:27:54.499Z,11.88
2022-11-05T03:42:58.640Z,12.15
2022-11-05T03:58:01.303Z,13.75
2022-11-05T04:13:21.878Z,12.82
2022-11-05T04:28:43.762Z,13.60
2022-11-05T04:43:45.741Z,14.73
2022-11-05T04:58:48.021Z,14.68
2022-11-05T05:13:49.979Z,14.70
2022-11-05T05:28:53.848Z,15.38
2022-11-05T05:43:55.898Z,16.50
2022-11-05T05:58:57.801Z,17.45
2022-11-05T06:13:59.800Z,17.20
2022-11-05T06:29:01.771Z,17.48
2022-11-05T06:44:03.818Z,18.70
2022-11-05T06:59:05.802Z,18.98
2022-11-05T07:14:07.721Z,19.88
2022-11-05T07:29:09.700Z,21.50
2022-11-05T07:44:12.126Z,20.60
2022-11-05T07:59:14.079Z,21.17
2022-11-05T08:14:16.002Z,21.25
2022-11-05T08:29:18.081Z,22.73
2022-11-05T08:44:19.958Z,21.83
2022-11-05T08:59:21.997Z,20.65
2022-11-05T09:14:27.280Z,19.00
2022-11-05T09:29:29.182Z,21.30
2022-11-05T09:44:43.830Z,19.65
2022-11-05T09:59:49.098Z,21.60
2022-11-05T10:15:01.699Z,20.90
2022-11-05T10:30:04.698Z,22.10
2022-11-05T10:45:15.940Z,22.40
2022-11-05T11:00:24.300Z,25.85
2022-11-05T11:15:35.438Z,23.98
2022-11-05T11:30:38.861Z,25.40
2022-11-05T11:45:56.512Z,25.48
2022-11-05T12:01:17.933Z,28.10
2022-11-05T12:16:42.917Z,26.90
2022-11-05T12:31:52.808Z,27.73
2022-11-05T12:47:19.088Z,29.23
2022-11-05T13:02:29.850Z,30.65
2022-11-05T13:17:51.322Z,55.15
2022-11-05T13:33:23.319Z,31.17
2022-11-05T13:48:43.964Z,30.58
2022-11-05T14:03:50.859Z,32.38
2022-11-05T14:19:13.119Z,33.47
2022-11-05T14:34:15.061Z,77.38
2022-11-05T14:49:38.658Z,35.67
2022-11-05T15:04:43.020Z,31.55
2022-11-05T15:19:46.077Z,30.67
2022-11-05T15:34:56.181Z,31.52
2022-11-05T15:50:05.680Z,32.30
2022-11-05T16:05:13.959Z,38.38
2022-11-05T16:20:27.647Z,36.63
2022-11-05T16:35:29.660Z,32.50
2022-11-05T16:50:33.078Z,30.98
2022-11-05T17:05:35.037Z,27.40
2022-11-05T17:20:42.998Z,25.92
2022-11-05T17:35:45.142Z,23.88
2022-11-05T17:50:49.845Z,16.88
2022-11-05T18:05:51.924Z,13.85
2022-11-05T18:20:58.121Z,12.60
2022-11-05T18:36:00.059Z,11.38
2022-11-05T18:51:09.359Z,10.88
2022-11-05T19:06:11.428Z,11.57
2022-11-05T19:21:18.160Z,12.27
2022-11-05T19:36:21.838Z,10.98
2022-11-05T19:51:29.078Z,10.25
2022-11-05T20:06:35.560Z,12.45
2022-11-05T20:21:38.080Z,13.30
2022-11-05T20:36:40.209Z,12.02
2022-11-05T20:51:42.178Z,12.10
2022-11-05T21:06:44.239Z,12.13
2022-11-05T21:21:46.370Z,12.85
2022-11-05T21:36:48.398Z,12.90
2022-11-05T21:52:08.700Z,13.85
2022-11-05T22:07:15.897Z,12.27
2022-11-05T22:22:18.138Z,11.93
2022-11-05T22:37:20.057Z,12.63
2022-11-05T22:52:21.959Z,12.80
2022-11-05T23:07:42.358Z,12.32
2022-11-05T23:23:02.688Z,13.00
2022-11-05T23:38:23.197Z,12.50
2022-11-05T23:53:25.419Z,14.03
